Home > Products > Valid Products > TAF

000
FTUS46 KMTR 251700
TAFSNS
TAF
KSNS 251720Z 2518/2618 VRB03KT P6SM SKC
     FM252100 29012KT P6SM SKC
     FM260400 30005KT P6SM FEW005
     FM260900 VRB03KT P6SM OVC004
      TEMPO 2610/2614 4SM BR=



000
FTUS46 KMTR 251700
TAFSJC
TAF
KSJC 251720Z 2518/2618 VRB03KT P6SM SKC
     FM252000 30010KT P6SM SKC
     FM260400 VRB04KT P6SM SKC=



000
FTUS46 KMTR 251700
TAFSFO
TAF
KSFO 251720Z 2518/2624 01005KT P6SM SKC
     FM252200 30018KT P6SM SKC
     FM260400 29005KT P6SM FEW010
     FM261800 30010KT P6SM SKC=



000
FTUS46 KMTR 251700
TAFMRY
TAF
KMRY 251720Z 2518/2618 VRB03KT P6SM SKC
     FM251900 29010KT P6SM SKC
     FM260400 24005KT P6SM SCT005
     FM260700 VRB03KT P6SM OVC004
      TEMPO 2612/2615 3SM BR=



000
FTUS46 KMTR 251700
TAFSTS
TAF
KSTS 251720Z 2518/2618 VRB03KT P6SM SKC
     FM252000 19010KT P6SM SKC
     FM260400 VRB03KT P6SM SKC=



000
FTUS46 KMTR 251700
TAFOAK
TAF
KOAK 251720Z 2518/2624 26006KT P6SM SKC
     FM252100 30012KT P6SM SKC
     FM260400 31005KT P6SM SKC=



000
FTUS46 KMTR 251500 AAA
TAFSFO
TAF AMD
KSFO 251501Z 2515/2618 VRB03KT P6SM FEW010
     FM251700 01005KT P6SM SKC
     FM252200 30016KT P6SM SKC
     FM260400 29005KT P6SM FEW010=



000
FTUS46 KMTR 251100 CCA
TAFMRY
TAF COR
KMRY 251135Z 2512/2612 VRB03KT 6SM BR OVC004
     FM251500 VRB03KT P6SM FEW008
     FM251900 29010KT P6SM SKC
     FM260400 24005KT P6SM SCT008
     FM260700 VRB03KT P6SM BKN008=



000
FTUS46 KMTR 251100
TAFSTS
TAF
KSTS 251134Z 2512/2612 VRB03KT P6SM SKC
     FM252000 19010KT P6SM SKC
     FM260400 VRB03KT P6SM SKC=



000
FTUS46 KMTR 251100
TAFSJC
TAF
KSJC 251134Z 2512/2612 VRB03KT P6SM SKC
     FM252000 30010KT P6SM SKC
     FM260400 VRB04KT P6SM SKC=



000
FTUS46 KMTR 251100
TAFMRY
TAF
KMRY 251134Z 2512/2612 VRB03KT 5SM BR OVC004
     FM251500 VRB03KT P6SM FEW008
     FM251900 29010KT P6SM SKC
     FM260400 24005KT P6SM SKC=



000
FTUS46 KMTR 251100
TAFSFO
TAF
KSFO 251134Z 2512/2618 28006KT P6SM FEW010
     FM251700 01005KT P6SM FEW010
     FM252200 30016KT P6SM SKC
     FM260400 29005KT P6SM FEW010=



000
FTUS46 KMTR 251100
TAFOAK
TAF
KOAK 251134Z 2512/2618 30006KT P6SM SKC
     FM252100 30012KT P6SM SKC
     FM260400 31005KT P6SM SKC=



000
FTUS46 KMTR 251100
TAFSNS
TAF
KSNS 251134Z 2512/2612 29008KT 5SM BR BKN004
     FM251600 VRB03KT P6SM FEW010
     FM252100 29012KT P6SM SKC
     FM260400 30005KT P6SM SKC=



000
FTUS46 KMTR 250900 AAA
TAFSFO
TAF AMD
KSFO 250901Z 2509/2612 28006KT P6SM FEW010
     FM251700 01005KT P6SM FEW010
     FM252200 30016KT P6SM SKC
     FM260400 30007KT P6SM FEW010=



000
FTUS46 KMTR 250900 AAA
TAFMRY
TAF AMD
KMRY 250900Z 2509/2606 VRB03KT 6SM BR OVC004
     FM251500 VRB03KT P6SM SKC
     FM251900 29010KT P6SM SKC
     FM260400 24005KT P6SM SKC=



000
FTUS46 KMTR 250500
TAFSTS
TAF
KSTS 250520Z 2506/2606 VRB03KT P6SM SKC
     FM252000 19010KT P6SM SKC
     FM260400 VRB03KT P6SM SKC=



000
FTUS46 KMTR 250500
TAFOAK
TAF
KOAK 250520Z 2506/2612 31005KT P6SM SKC
     FM250700 VRB03KT P6SM SKC
     FM252100 30012KT P6SM SKC
     FM260400 31005KT P6SM SKC=



000
FTUS46 KMTR 250500
TAFSNS
TAF
KSNS 250520Z 2506/2606 29008KT P6SM FEW008
     FM251300 29005KT P6SM BKN005
     FM251600 VRB03KT P6SM SKC
     FM252100 27012KT P6SM SKC
     FM260400 27006KT P6SM SKC=



000
FTUS46 KMTR 250500
TAFSJC
TAF
KSJC 250520Z 2506/2606 VRB03KT P6SM SKC
     FM252000 30010KT P6SM SKC
     FM260400 31005KT P6SM SKC=



000
FTUS46 KMTR 250500
TAFSFO
TAF
KSFO 250520Z 2506/2612 29015KT P6SM SKC
     FM250700 28005KT P6SM FEW010
     FM251700 01005KT P6SM FEW010
     FM252200 30015KT P6SM SKC
     FM260400 30008KT P6SM FEW010=



000
FTUS46 KMTR 250500
TAFMRY
TAF
KMRY 250520Z 2506/2606 24005KT P6SM SKC
     FM251200 VRB03KT P6SM BKN004
     FM251500 VRB03KT P6SM SKC
     FM251900 29010KT P6SM SKC
     FM260400 24005KT P6SM SKC=



000
FTUS46 KMTR 250300 AAA
TAFSFO
TAF AMD
KSFO 250307Z 2503/2606 29015KT P6SM SKC
     FM250700 28005KT P6SM FEW010
     FM251700 01005KT P6SM FEW010
     FM252200 30015KT P6SM SKC=



000
FTUS46 KMTR 242300
TAFMRY
TAF
KMRY 242320Z 2500/2524 29010KT P6SM SKC
     FM250300 24005KT P6SM FEW007
     FM250800 VRB03KT P6SM BKN004
     FM251500 VRB03KT P6SM SKC
     FM251900 29010KT P6SM SKC=



000
FTUS46 KMTR 242300
TAFSJC
TAF
KSJC 242320Z 2500/2524 30012KT P6SM SKC
     FM250300 30008KT P6SM SKC
     FM250600 VRB03KT P6SM SKC
     FM252000 30010KT P6SM SKC=



000
FTUS46 KMTR 242300
TAFSNS
TAF
KSNS 242320Z 2500/2524 27012KT P6SM SKC
     FM250400 29008KT P6SM FEW008
     FM250800 29005KT P6SM BKN007
     FM251100 VRB03KT P6SM OVC003
     FM251600 VRB03KT P6SM SKC
     FM252100 27012KT P6SM SKC=



000
FTUS46 KMTR 242300
TAFSFO
TAF
KSFO 242320Z 2500/2606 29020G25KT P6SM SKC
     FM250300 29015KT P6SM FEW010
     FM250700 28005KT P6SM FEW010
     FM251700 01005KT P6SM FEW010
     FM252200 30015KT P6SM SKC=



000
FTUS46 KMTR 242300
TAFSTS
TAF
KSTS 242320Z 2500/2524 20010KT P6SM SKC
     FM250400 VRB03KT P6SM SKC
     FM252000 19010KT P6SM SKC=



000
FTUS46 KMTR 242300
TAFOAK
TAF
KOAK 242320Z 2500/2606 29014KT P6SM SKC
     FM250400 31005KT P6SM SKC
     FM250700 VRB03KT P6SM SKC
     FM252100 30012KT P6SM SKC
     FM260400 31005KT P6SM SKC=



000
FTUS46 KMTR 242100 AAA
TAFSFO
TAF AMD
KSFO 242105Z 2421/2524 29016KT P6SM SKC
     FM242300 29020G25KT P6SM SKC
     FM250300 29015KT P6SM FEW010
     FM250700 28005KT P6SM FEW010
     FM251700 01005KT P6SM FEW010=



000
FTUS46 KMTR 242000 AAA
TAFSNS
TAF AMD
KSNS 242003Z 2420/2518 27012KT P6SM SKC
     FM250400 29008KT P6SM FEW008
     FM250800 29005KT P6SM BKN007
     FM251100 VRB03KT P6SM OVC003
     FM251600 VRB03KT P6SM SKC=



000
FTUS46 KMTR 241800 AAA
TAFMRY
TAF AMD
KMRY 241830Z 2419/2518 27008KT P6SM FEW010
     FM242000 29010KT P6SM SKC
     FM250300 24005KT P6SM FEW007
     FM250800 VRB03KT P6SM BKN004
     FM251500 VRB03KT P6SM SKC=



000
FTUS46 KMTR 241700
TAFSJC
TAF
KSJC 241722Z 2418/2518 33005KT P6SM SKC
     FM242000 30012KT P6SM SKC
     FM250300 30008KT P6SM SKC
     FM250600 VRB03KT P6SM SKC=



000
FTUS46 KMTR 241700
TAFSNS
TAF
KSNS 241722Z 2418/2518 27005KT P6SM SKC
     FM242000 29012KT P6SM SKC
     FM250400 29008KT P6SM FEW008
     FM250800 29005KT P6SM BKN007
     FM251100 VRB03KT P6SM OVC003
     FM251600 VRB03KT P6SM SKC=



000
FTUS46 KMTR 241700
TAFSFO
TAF
KSFO 241722Z 2418/2524 01006KT P6SM FEW010
     FM242100 29016KT P6SM FEW010
     FM242300 29020G25KT P6SM FEW010
     FM250300 29015KT P6SM FEW010
     FM250700 28005KT P6SM FEW010
     FM251700 01005KT P6SM FEW010=



000
FTUS46 KMTR 241700
TAFMRY
TAF
KMRY 241722Z 2418/2518 27008KT P6SM FEW010
      TEMPO 2418/2420 OVC006
     FM242000 29010KT P6SM SKC
     FM250300 24005KT P6SM FEW007
     FM250800 VRB03KT P6SM BKN004
     FM251500 VRB03KT P6SM SKC=



000
FTUS46 KMTR 241700
TAFSTS
TAF
KSTS 241722Z 2418/2518 VRB03KT P6SM SKC
     FM242000 19010KT P6SM SKC
     FM250400 VRB03KT P6SM SKC=



000
FTUS46 KMTR 241700
TAFOAK
TAF
KOAK 241722Z 2418/2524 27008KT P6SM SKC
     FM242100 29014KT P6SM SKC
     FM250400 29005KT P6SM SKC
     FM250700 VRB03KT P6SM SKC
     FM252100 30010KT P6SM SKC=



000
FTUS46 KMTR 241600 AAA
TAFMRY
TAF AMD
KMRY 241602Z 2416/2512 VRB03KT P6SM OVC004
     FM241800 27008KT P6SM FEW010
     FM242000 29010KT P6SM SKC
     FM250300 24004KT P6SM FEW007
     FM250800 VRB03KT P6SM BKN008=



000
FTUS46 KMTR 241600 AAD
TAFSNS
TAF AMD
KSNS 241602Z 2416/2512 30004KT P6SM OVC007
     FM241700 29005KT P6SM FEW010
     FM242000 29012KT P6SM SKC
     FM250400 29005KT P6SM FEW008=



000
FTUS46 KMTR 241500 AAC
TAFSNS
TAF AMD
KSNS 241537Z 2416/2512 29004KT P6SM OVC005
     FM241700 29005KT P6SM FEW010
     FM242000 29012KT P6SM SKC
     FM250400 29005KT P6SM FEW008=



000
FTUS46 KMTR 241500 AAA
TAFOAK
TAF AMD
KOAK 241534Z 2416/2518 00000KT P6SM SCT011
     FM241630 25005KT P6SM FEW010
     FM241900 27008KT P6SM SKC
     FM242100 29014KT P6SM SKC
     FM250400 29005KT P6SM SKC=



000
FTUS46 KMTR 241500 AAB
TAFSFO
TAF AMD
KSFO 241500Z 2415/2518 31006KT P6SM FEW007
     FM242100 29016KT P6SM SKC
     FM250300 29009KT P6SM FEW010
     FM250700 28005KT P6SM FEW010=



000
FTUS46 KMTR 241400 AAB
TAFSNS
TAF AMD
KSNS 241426Z 2414/2512 26005KT 5SM BR OVC003
     FM241530 28004KT P6SM FEW010
     FM242000 29012KT P6SM SKC
     FM250400 29005KT P6SM FEW008=



000
FTUS46 KMTR 241300 AAA
TAFSFO
TAF AMD
KSFO 241320Z 2413/2518 28005KT P6SM FEW004 SCT008
     FM242100 29016KT P6SM SKC
     FM250300 29009KT P6SM FEW010
     FM250700 28005KT P6SM FEW010=



000
FTUS46 KMTR 241300 AAA
TAFSNS
TAF AMD
KSNS 241309Z 2413/2512 VRB03KT P6SM BKN008
     FM241530 28004KT P6SM FEW010
     FM242000 29012KT P6SM SKC
     FM250400 29005KT P6SM FEW008=



000
FTUS46 KMTR 241100 CCA
TAFMRY
TAF COR
KMRY 241157Z 2412/2512 VRB04KT P6SM BKN005
     FM241600 VRB04KT P6SM SCT008
     FM242000 29010KT P6SM SKC
     FM250300 24004KT P6SM FEW007
     FM250800 VRB03KT P6SM BKN008=



000
FTUS46 KMTR 241100
TAFSFO
TAF
KSFO 241130Z 2412/2518 29014KT P6SM SCT008 BKN012
     FM241600 28005KT P6SM SCT010 SCT012
     FM242100 29016KT P6SM SKC
     FM250300 29009KT P6SM FEW010
     FM250700 28005KT P6SM FEW010=



000
FTUS46 KMTR 241100
TAFMRY
TAF
KMRY 241130Z 2412/2512 VRB03KT P6SM FEW010
     FM242000 29010KT P6SM SKC
     FM250300 24004KT P6SM FEW007
     FM250800 VRB03KT P6SM BKN008=



000
FTUS46 KMTR 241100
TAFOAK
TAF
KOAK 241130Z 2412/2518 VRB03KT P6SM BKN008
     FM241630 25005KT P6SM FEW010
     FM241900 27008KT P6SM SKC
     FM242100 29014KT P6SM SKC
     FM250400 29005KT P6SM SKC=



000
FTUS46 KMTR 241100
TAFSJC
TAF
KSJC 241130Z 2412/2512 31003KT P6SM SKC
     FM241800 30012KT P6SM SKC
     FM250300 30005KT P6SM SKC=



000
FTUS46 KMTR 241100
TAFSNS
TAF
KSNS 241130Z 2412/2512 30005KT P6SM FEW012
     FM242000 29012KT P6SM SKC
     FM250400 29005KT P6SM FEW008=



000
FTUS46 KMTR 241100
TAFSTS
TAF
KSTS 241130Z 2412/2512 VRB03KT P6SM SKC
     FM241800 19007KT P6SM SKC
     FM250300 VRB03KT P6SM SKC=



000
FTUS46 KMTR 240900 AAA
TAFSFO
TAF AMD
KSFO 240905Z 2409/2512 29014KT P6SM BKN012
     FM241600 28005KT P6SM SCT010 SCT012
     FM242100 29012KT P6SM SKC
     FM250300 29009KT P6SM SKC=



000
FTUS46 KMTR 240500
TAFSTS
TAF
KSTS 240535Z 2406/2506 VRB03KT P6SM SKC
     FM241800 19007KT P6SM SKC
     FM250300 VRB03KT P6SM SKC=



000
FTUS46 KMTR 240500
TAFSJC
TAF
KSJC 240535Z 2406/2506 30009KT P6SM SKC
     FM240800 31003KT P6SM SKC
     FM241800 30012KT P6SM SKC
     FM250300 30009KT P6SM SKC=



000
FTUS46 KMTR 240500
TAFMRY
TAF
KMRY 240535Z 2406/2506 24005KT P6SM SCT012
     FM241200 VRB03KT 6SM BR SCT007
     FM241700 29009KT P6SM SKC
     FM250300 24004KT P6SM FEW007=



000
FTUS46 KMTR 240500
TAFSFO
TAF
KSFO 240535Z 2406/2512 29012KT P6SM FEW012
     FM241500 28005KT P6SM SKC
     FM242100 29012KT P6SM SKC
     FM250300 29009KT P6SM SKC=



000
FTUS46 KMTR 240500
TAFOAK
TAF
KOAK 240535Z 2406/2512 26010KT P6SM SKC
     FM241000 09003KT P6SM SKC
      TEMPO 2412/2416 BKN008
     FM241800 27008KT P6SM SKC
     FM242100 29014KT P6SM SKC
     FM250300 29009KT P6SM SKC=



000
FTUS46 KMTR 240500
TAFSNS
TAF
KSNS 240535Z 2406/2506 29007KT P6SM SCT012
     FM241900 29012KT P6SM SKC
     FM250200 29010KT P6SM SKC=



000
FTUS46 KMTR 240300 AAA
TAFSFO
TAF AMD
KSFO 240311Z 2403/2506 29018G25KT P6SM FEW012
     FM240400 29011KT P6SM FEW012
     FM241500 28005KT P6SM SKC
     FM242100 29012KT P6SM SKC=



000
FTUS46 KMTR 240100 AAA
TAFSNS
TAF AMD
KSNS 240152Z 2402/2424 26011KT P6SM SCT013
      TEMPO 2402/2406 BKN013
     FM240600 29007KT P6SM SCT012
     FM241900 29012KT P6SM SKC=



000
FTUS46 KMTR 240100 AAB
TAFMRY
TAF AMD
KMRY 240151Z 2402/2424 29010KT P6SM SCT012
      TEMPO 2402/2406 BKN012
     FM240600 24005KT P6SM SCT012
     FM241200 24004KT 4SM BR SCT007
     FM241500 VRB03KT P6SM SKC=



000
FTUS46 KMTR 240000 AAA
TAFMRY
TAF AMD
KMRY 240036Z 2401/2424 29010KT P6SM SCT012
      TEMPO 2401/2403 BKN012
     FM240300 24005KT P6SM SCT012
     FM240600 VRB03KT P6SM FEW010
     FM241200 24004KT 4SM BR SCT007
     FM241500 VRB03KT P6SM SKC=



000
FTUS46 KMTR 232300 RRA
TAFSJC
TAF
KSJC 232345Z 2400/2424 32015KT P6SM FEW040
     FM240400 30009KT P6SM SKC
     FM240800 31003KT P6SM SKC
     FM241800 30009KT P6SM SKC=



000
FTUS46 KMTR 232300 RRA
TAFMRY
TAF
KMRY 232345Z 2400/2424 29010KT P6SM SKC
     FM240300 24005KT P6SM SKC
     FM240600 VRB03KT P6SM FEW010
     FM241200 24004KT 4SM BR SCT007
     FM241500 VRB03KT P6SM SKC=



000
FTUS46 KMTR 232300 RRA
TAFOAK
TAF
KOAK 232345Z 2400/2506 28015KT P6SM SCT050
     FM240400 26010KT P6SM SKC
     FM241000 09003KT P6SM SKC
      TEMPO 2412/2416 BKN008
     FM241800 27008KT P6SM SKC
     FM242100 29014KT P6SM SKC
     FM250300 29009KT P6SM SKC=



000
FTUS46 KMTR 232300 RRA
TAFSNS
TAF
KSNS 232345Z 2400/2424 27015G21KT P6SM SKC
     FM240300 29009KT P6SM FEW010
     FM241200 27005KT P6SM FEW010
     FM241900 29012KT P6SM SKC=



000
FTUS46 KMTR 232300 RRA
TAFSTS
TAF
KSTS 232345Z 2400/2424 19011KT P6SM SCT050
     FM240300 18004KT P6SM SKC
     FM240800 00000KT P6SM SKC
     FM241800 19007KT P6SM SKC=



000
FTUS46 KMTR 232300 RRA
TAFSFO
TAF
KSFO 232345Z 2400/2506 29018G25KT P6SM SCT015
      TEMPO 2400/2403 BKN015
     FM240400 29011KT P6SM FEW012
     FM241500 28005KT P6SM SKC
     FM242100 29012KT P6SM SKC=



000
FTUS46 KMTR 232000 AAA
TAFSFO
TAF AMD
KSFO 232048Z 2321/2424 30015KT P6SM FEW008 SCT030
     FM232200 29018G25KT P6SM FEW020 SCT035
     FM240500 29015KT P6SM FEW010
     FM240900 27010KT P6SM FEW010
     FM241500 28005KT P6SM SKC=



000
FTUS46 KMTR 231700
TAFMRY
TAF
KMRY 231730Z 2318/2418 29005KT P6SM SCT150
     FM232200 29010KT P6SM SCT150
     FM240300 24005KT P6SM SKC
     FM240600 VRB03KT P6SM FEW010
     FM241200 24004KT 4SM BR SCT007
     FM241500 VRB03KT P6SM SKC=



000
FTUS46 KMTR 231700
TAFSNS
TAF
KSNS 231730Z 2318/2418 30004KT P6SM SCT150
     FM232000 28010KT P6SM SCT150
     FM232200 27015G21KT P6SM SCT150
     FM240300 29009KT P6SM FEW010
     FM241200 27005KT P6SM FEW010=



000
FTUS46 KMTR 231700
TAFOAK
TAF
KOAK 231730Z 2318/2424 25008KT P6SM SCT018 BKN035
     FM232100 28015KT P6SM SCT050
     FM240400 26010KT P6SM SKC
     FM241000 09003KT P6SM SKC
      TEMPO 2412/2416 BKN008
     FM241800 27008KT P6SM SKC=



000
FTUS46 KMTR 231700
TAFSJC
TAF
KSJC 231730Z 2318/2418 31005KT P6SM FEW016 BKN035
     FM232000 31010KT P6SM SCT035
     FM232300 32015KT P6SM SCT040
     FM240400 30009KT P6SM SKC
     FM240800 31003KT P6SM SKC=



000
FTUS46 KMTR 231700
TAFSFO
TAF
KSFO 231730Z 2318/2424 04004KT P6SM FEW020 SCT022 BKN030
     FM232000 27010KT P6SM SCT025 SCT035
     FM232200 29018G25KT P6SM FEW020 SCT035
     FM240500 29015KT P6SM FEW010
     FM240900 27010KT P6SM FEW010
     FM241500 28005KT P6SM SKC=



000
FTUS46 KMTR 231700
TAFSTS
TAF
KSTS 231730Z 2318/2418 00000KT P6SM FEW035 SCT045
     FM232100 19011KT P6SM SCT050
     FM240300 18004KT P6SM SKC
     FM240800 00000KT P6SM SKC=



000
FTUS46 KMTR 231400 AAB
TAFSFO
TAF AMD
KSFO 231449Z 2315/2418 22003KT P6SM FEW020 OVC030
     FM231800 25006KT P6SM FEW020 SCT030
     FM232100 29018G25KT P6SM FEW020 SCT035
     FM240500 29009KT P6SM SKC=



000
FTUS46 KMTR 231400 AAA
TAFSFO
TAF AMD
KSFO 231440Z 2315/2418 22003KT P6SM FEW020 BKN035
     FM231800 25006KT P6SM FEW035
     FM232100 29018G25KT P6SM FEW050
     FM240500 29009KT P6SM SKC=



000
FTUS46 KMTR 231400 AAA
TAFOAK
TAF AMD
KOAK 231439Z 2315/2418 30004KT P6SM BKN018 OVC035
     FM231800 28006KT P6SM FEW025 SCT040
     FM232100 28016KT P6SM SCT050
     FM240400 26007KT P6SM SKC=



000
FTUS46 KMTR 231400 AAA
TAFSTS
TAF AMD
KSTS 231433Z 2315/2412 00000KT P6SM OVC035
     FM231800 19006KT P6SM SCT035
     FM232100 19011KT P6SM SCT050
     FM240300 18004KT P6SM SKC
     FM240800 00000KT P6SM SKC=



000
FTUS46 KMTR 231100
TAFSJC
TAF
KSJC 231137Z 2312/2412 18003KT P6SM SCT021
     FM231600 VRB03KT P6SM FEW020
     FM232100 32015KT P6SM FEW015
     FM240400 30009KT P6SM SKC
     FM240800 31003KT P6SM SKC=



000
FTUS46 KMTR 231100
TAFMRY
TAF
KMRY 231137Z 2312/2412 08004KT P6SM SKC
     FM231600 VRB03KT P6SM SKC
     FM231800 29011KT P6SM SKC
     FM240300 24004KT P6SM SKC
     FM240600 VRB03KT P6SM SKC=



000
FTUS46 KMTR 231100
TAFSTS
TAF
KSTS 231137Z 2312/2412 00000KT P6SM FEW022 OVC035
     FM231400 00000KT P6SM BKN022 OVC035
     FM231800 19006KT P6SM SKC
     FM232100 19011KT P6SM SKC
     FM240300 18004KT P6SM SKC
     FM240800 00000KT P6SM SKC=



000
FTUS46 KMTR 231100
TAFSFO
TAF
KSFO 231137Z 2312/2418 19004KT P6SM FEW010 BKN035 BKN150
     FM231800 25006KT P6SM FEW030
     FM232100 29018G25KT P6SM SKC
     FM240500 29009KT P6SM SKC=



000
FTUS46 KMTR 231100
TAFOAK
TAF
KOAK 231137Z 2312/2418 28004KT P6SM FEW018 SCT025 OVC035
     FM231400 30004KT P6SM BKN018 OVC025
     FM231800 28006KT P6SM FEW025
     FM232100 28016KT P6SM SKC
     FM240400 26007KT P6SM SKC=



000
FTUS46 KMTR 231100
TAFSNS
TAF
KSNS 231137Z 2312/2412 00000KT P6SM SKC
     FM231600 27003KT P6SM SKC
     FM231800 28011KT P6SM SKC
     FM232000 27015G21KT P6SM SKC
     FM240300 29009KT P6SM FEW010=



000
FTUS46 KMTR 230900 AAA
TAFSFO
TAF AMD
KSFO 230902Z 2309/2412 24005KT P6SM FEW010 BKN028 BKN150
     FM231800 25006KT P6SM FEW020
     FM232100 29014G22KT P6SM SKC
     FM240300 29011KT P6SM FEW012=



000
FTUS46 KMTR 230500
TAFSNS
TAF
KSNS 230530Z 2306/2406 29005KT P6SM FEW010
     FM231800 31012KT P6SM SKC
     FM240300 29009KT P6SM FEW010=



000
FTUS46 KMTR 230500
TAFMRY
TAF
KMRY 230530Z 2306/2406 VRB04KT P6SM FEW011
     FM231800 29011KT P6SM SKC
     FM240300 24004KT P6SM FEW010=



000
FTUS46 KMTR 230500
TAFSTS
TAF
KSTS 230530Z 2306/2406 VRB03KT P6SM FEW015
     FM231800 19007KT P6SM SKC
     FM240300 VRB03KT P6SM SKC=



000
FTUS46 KMTR 230500
TAFSFO
TAF
KSFO 230530Z 2306/2412 25011KT P6SM SCT020 BKN040
     FM231800 25006KT P6SM FEW020
     FM232100 29014G22KT P6SM SKC
     FM240300 29011KT P6SM FEW012=



000
FTUS46 KMTR 230500
TAFSJC
TAF
KSJC 230530Z 2306/2406 30009KT P6SM FEW012
     FM231900 32012KT P6SM FEW015
     FM240300 30009KT P6SM FEW012=



000
FTUS46 KMTR 230500
TAFOAK
TAF
KOAK 230530Z 2306/2412 27011KT P6SM SCT012
      TEMPO 2306/2310 BKN012
     FM231900 28016KT P6SM FEW016
     FM240300 26006KT P6SM FEW012=



000
FTUS46 KMTR 230400 AAA
TAFOAK
TAF AMD
KOAK 230436Z 2305/2406 27011KT P6SM SCT012
      TEMPO 2305/2309 BKN012
     FM231900 28016KT P6SM FEW016
     FM240300 26006KT P6SM FEW012=



000
FTUS46 KMTR 230400 AAA
TAFSTS
TAF AMD
KSTS 230435Z 2305/2324 21005KT P6SM SCT015
      TEMPO 2305/2307 BKN015
     FM230700 00000KT P6SM FEW015
     FM231800 19007KT P6SM SKC=



000
FTUS46 KMTR 230400 AAC
TAFSFO
TAF AMD
KSFO 230414Z 2304/2406 25011KT P6SM SCT020 BKN040
      TEMPO 2304/2305 BKN020 BKN040
     FM231800 25006KT P6SM FEW020
     FM232100 29014G22KT P6SM SKC
     FM240300 29011KT P6SM FEW012=



000
FTUS46 KMTR 230300 AAB
TAFSFO
TAF AMD
KSFO 230300Z 2303/2406 25011KT P6SM FEW020 SCT040
     FM231800 25006KT P6SM FEW020
     FM232100 29014G22KT P6SM SKC
     FM240300 29011KT P6SM FEW012=



000
FTUS46 KMTR 230000 AAA
TAFSFO
TAF AMD
KSFO 230022Z 2300/2406 24016G24KT P6SM FEW020 SCT040
      TEMPO 2300/2302 FEW020 BKN040
     FM230400 25011KT P6SM FEW020 SCT040
     FM231800 25006KT P6SM FEW020
     FM232100 29014G22KT P6SM SKC
     FM240300 29011KT P6SM FEW012=



000
FTUS46 KMTR 222300 RRA
TAFSTS
TAF
KSTS 222345Z 2300/2324 17009KT P6SM FEW060 SCT250
     FM230300 17005KT P6SM SKC
     FM230600 00000KT P6SM FEW008
     FM231800 19007KT P6SM SKC=



000
FTUS46 KMTR 222300 RRA
TAFOAK
TAF
KOAK 222345Z 2300/2406 28016G22KT P6SM FEW016 SCT250
     FM230400 27008KT P6SM FEW012
     FM231900 28016KT P6SM FEW016
     FM240300 26006KT P6SM FEW012=



000
FTUS46 KMTR 222300 RRA
TAFMRY
TAF
KMRY 222345Z 2300/2324 24014G19KT P6SM SKC
     FM230200 24007KT P6SM SKC
     FM230700 24004KT P6SM FEW011
     FM231800 29011KT P6SM SKC=



000
FTUS46 KMTR 222300 RRA
TAFSFO
TAF
KSFO 222345Z 2300/2406 26016G22KT P6SM FEW020 SCT250
     FM230400 26011KT P6SM SKC
     FM231800 25006KT P6SM FEW020
     FM232100 29014G22KT P6SM SKC
     FM240300 29011KT P6SM FEW012=



000
FTUS46 KMTR 222300 RRA
TAFSNS
TAF
KSNS 222345Z 2300/2324 28013G19KT P6SM SKC
     FM230300 28008KT P6SM SKC
     FM230500 27005KT P6SM FEW010
     FM231800 31012KT P6SM SKC=



000
FTUS46 KMTR 222300 RRA
TAFSJC
TAF
KSJC 222345Z 2300/2324 31016G22KT P6SM FEW015
     FM230300 30009KT P6SM SKC
     FM231900 32012KT P6SM FEW015=



000
FTUS46 KMTR 222100 AAA
TAFMRY
TAF AMD
KMRY 222122Z 2221/2318 25014G19KT P6SM FEW030
     FM230200 24006KT P6SM FEW010
     FM230500 24004KT P6SM BKN015=



000
FTUS46 KMTR 222100 AAA
TAFSFO
TAF AMD
KSFO 222102Z 2221/2324 26016KT P6SM FEW035 BKN050
     FM230400 26011KT P6SM FEW035
     FM230800 26009KT P6SM OVC015
     FM231800 25006KT P6SM FEW020=



    US Dept of Commerce
    National Oceanic and Atmospheric Administration
    National Weather Service
    1325 East West Highway
    Silver Spring, MD 20910
    Page Author: NWS Internet Services Team
Disclaimer
Information Quality
Credits
Glossary
Privacy Policy
Freedom of Information Act (FOIA)
About Us
Career Opportunities